Lovely Linda — WCV8236 — position and weather

sailwx.info

Track history (hours):
 
Tides and Currents Weather Stations Pressure Air Temp Water Temp Dewpoint Dewpoint Depression Visibility Wind Speed Wind Dir Waves Ship Positions

Lovely Linda

Owner: LUGO, PETER A, CAPE CORAL, FL. More information available from US FCC via Universal Licensing System and Coast Guard Vessel Documentation Center.

Last reported at 2018-Apr-19 19:30 UTC. Time now 2018-Apr-19 19:35 UTC.
Position N 34°23' W 120°07'.

Length 32 m.

Type: Passenger vessel. MMSI: 367077090.

Date/timePositionNaut miles runAvg speedWind from/ knotsBaromVisibWave heightAir tempDewpointWater temp
2018-Apr-19 19:30N 34°23' W 120°07'0 0.0
2018-Apr-19 19:00N 34°23' W 120°07'0 0.0
2018-Apr-19 18:30N 34°23' W 120°07'0 0.1
2018-Apr-19 18:00N 34°23' W 120°07'4 6.8
2018-Apr-19 17:29N 34°23' W 120°11'5 7.0
2018-Apr-19 16:48N 34°21' W 120°17'0 0.0
2018-Apr-19 16:26N 34°21' W 120°17'4 8.5
2018-Apr-19 16:00N 34°21' W 120°12'15 3.1
2018-Apr-19 11:18N 34°26' W 119°55'0 0.0
2018-Apr-19 07:08N 34°26' W 119°55'0 0.0
2018-Apr-19 05:14N 34°26' W 119°55'0 0.0
2018-Apr-19 03:14N 34°26' W 119°55'0 0.0
2018-Apr-19 00:58N 34°26' W 119°55'5 9.0
2018-Apr-19 00:28N 34°24' W 120°00'612.4
2018-Apr-18 23:59N 34°23' W 120°07'3 5.5
2018-Apr-18 23:26N 34°23' W 120°11'510.9
2018-Apr-18 22:58N 34°21' W 120°17'611.0
2018-Apr-18 22:26N 34°22' W 120°10'0 0.0
2018-Apr-18 21:58N 34°22' W 120°10'0 0.0
2018-Apr-18 21:04N 34°22' W 120°10'0 0.1
2018-Apr-18 21:00N 34°22' W 120°10'0 0.0
2018-Apr-18 20:15N 34°22' W 120°10'0 0.0
2018-Apr-18 19:57N 34°22' W 120°10'0 0.0
2018-Apr-18 19:30N 34°22' W 120°10'611.2
2018-Apr-18 18:59N 34°21' W 120°16'6 3.8
2018-Apr-18 17:30N 34°22' W 120°10'0 0.5
2018-Apr-18 17:00N 34°23' W 120°10'3 5.0
2018-Apr-18 16:29N 34°23' W 120°07'0 0.0
2018-Apr-18 15:59N 34°23' W 120°07'0 0.0
2018-Apr-18 15:25N 34°23' W 120°07'1 1.1
2018-Apr-18 14:59N 34°23' W 120°06'816.8
2018-Apr-18 14:29N 34°24' W 119°56'2 3.3
2018-Apr-18 14:00N 34°26' W 119°55'6 9.2
2018-Apr-18 13:18N 34°24' W 120°03'411.8
2018-Apr-18 13:00N 34°23' W 120°07'0 0.0
2018-Apr-18 12:30N 34°23' W 120°07'0 0.0
2018-Apr-18 12:00N 34°23' W 120°07'0 0.0
2018-Apr-18 11:24N 34°23' W 120°07'0 0.0
2018-Apr-18 10:52N 34°23' W 120°07'0 0.1
2018-Apr-18 10:21N 34°23' W 120°07'0 0.1
2018-Apr-18 10:00N 34°23' W 120°07'0 0.0
2018-Apr-18 09:00N 34°23' W 120°07'0 0.0
2018-Apr-18 07:22N 34°23' W 120°07'0 0.0
2018-Apr-18 06:58N 34°23' W 120°07'0 0.0
2018-Apr-18 06:25N 34°23' W 120°07'0 0.0
2018-Apr-18 05:58N 34°23' W 120°07'0 0.0
2018-Apr-18 05:27N 34°23' W 120°07'0 0.0
2018-Apr-18 04:57N 34°23' W 120°07'0 0.0
2018-Apr-18 04:23N 34°23' W 120°07'0 0.0
2018-Apr-18 04:00N 34°23' W 120°07'0 0.0
2018-Apr-18 03:29N 34°23' W 120°07'0 0.1
2018-Apr-18 02:58N 34°23' W 120°07'0 0.0
2018-Apr-18 02:29N 34°23' W 120°07'0 0.0
2018-Apr-18 01:57N 34°23' W 120°07'0 0.0
2018-Apr-18 01:28N 34°23' W 120°07'0 0.0
2018-Apr-18 01:00N 34°23' W 120°07'0 0.0
2018-Apr-18 00:28N 34°23' W 120°07'0 0.0
2018-Apr-17 23:42N 34°23' W 120°07'0 0.2
2018-Apr-17 23:26N 34°23' W 120°07'0 0.0
2018-Apr-17 22:59N 34°23' W 120°07'0 0.7
2018-Apr-17 22:30N 34°23' W 120°07'812.8
2018-Apr-17 21:53N 34°24' W 119°58'2 4.0
2018-Apr-17 21:21N 34°25' W 119°56'515.7
2018-Apr-17 21:00N 34°24' W 120°02'4 8.8
2018-Apr-17 20:29N 34°23' W 120°07'815.8
2018-Apr-17 19:59N 34°21' W 120°17'0 0.4
2018-Apr-17 19:30N 34°21' W 120°17'0 0.4
2018-Apr-17 19:00N 34°21' W 120°17'0 0.0
2018-Apr-17 18:27N 34°21' W 120°17'612.0
2018-Apr-17 17:58N 34°23' W 120°10'0 0.1
2018-Apr-17 17:29N 34°23' W 120°10'2 3.5
2018-Apr-17 17:00N 34°23' W 120°08'1 1.8
2018-Apr-17 16:30N 34°24' W 120°07'0 0.3
2018-Apr-17 16:00N 34°23' W 120°07'0 0.0
2018-Apr-17 15:23N 34°23' W 120°07'3 7.9
2018-Apr-17 14:57N 34°23' W 120°03'710.6
2018-Apr-17 14:19N 34°26' W 119°55'5 9.2
2018-Apr-17 13:46N 34°22' W 119°51'414.0
2018-Apr-17 13:27N 34°20' W 119°47'714.1
2018-Apr-17 12:59N 34°17' W 119°40'813.8
2018-Apr-17 12:23N 34°13' W 119°30'1013.3
2018-Apr-17 11:38N 34°10' W 119°19'213.0
2018-Apr-17 11:30N 34°10' W 119°17'4 0.2
2018-Apr-16 08:27N 34°09' W 119°12'0 0.0
2018-Apr-16 05:45N 34°09' W 119°12'0 0.0
2018-Apr-16 05:27N 34°09' W 119°12'0 0.0
2018-Apr-16 03:51N 34°09' W 119°12'0 0.0
2018-Apr-16 01:19N 34°09' W 119°12'0 0.0
2018-Apr-16 00:36N 34°09' W 119°12'0 0.0
2018-Apr-16 00:30N 34°09' W 119°12'0 0.0
2018-Apr-15 22:39N 34°09' W 119°12'0 0.0
2018-Apr-15 22:15N 34°09' W 119°12'0 0.0
2018-Apr-15 22:00N 34°09' W 119°12'0 0.0
2018-Apr-15 21:22N 34°09' W 119°12'2 4.8
2018-Apr-15 20:57N 34°09' W 119°15'716.0
2018-Apr-15 20:30N 34°11' W 119°23'916.0
2018-Apr-15 19:57N 34°14' W 119°33'815.6
2018-Apr-15 19:26N 34°17' W 119°42'715.3
2018-Apr-15 18:57N 34°19' W 119°50'915.2
2018-Apr-15 18:20N 34°23' W 120°01'515.1
2018-Apr-15 18:00N 34°23' W 120°07'3 5.6
2018-Apr-15 17:30N 34°23' W 120°10'0 0.2
2018-Apr-15 16:59N 34°23' W 120°10'611.4
2018-Apr-15 16:30N 34°21' W 120°17'611.0
2018-Apr-15 15:59N 34°23' W 120°10'1 1.9
2018-Apr-15 15:26N 34°22' W 120°11'4 9.6
2018-Apr-15 15:00N 34°21' W 120°16'3 5.1
2018-Apr-15 14:30N 34°22' W 120°13'5 9.3
2018-Apr-15 13:59N 34°23' W 120°08'1 0.9
2018-Apr-15 13:24N 34°23' W 120°07'0 0.0
2018-Apr-15 13:00N 34°23' W 120°07'0 0.0
2018-Apr-15 12:27N 34°23' W 120°07'0 0.1
2018-Apr-15 12:00N 34°23' W 120°07'0 0.0
2018-Apr-15 11:18N 34°23' W 120°07'0 0.0
2018-Apr-15 10:58N 34°23' W 120°07'0 0.0
2018-Apr-15 10:28N 34°23' W 120°07'0 0.0
2018-Apr-15 09:55N 34°23' W 120°07'0 0.0
2018-Apr-15 09:25N 34°23' W 120°07'0 0.0
2018-Apr-15 08:46N 34°23' W 120°07'0 0.0
2018-Apr-15 08:19N 34°23' W 120°07'0 0.0
2018-Apr-15 07:49N 34°23' W 120°07'0 0.1
2018-Apr-15 07:13N 34°23' W 120°07'0 0.0
2018-Apr-15 06:58N 34°23' W 120°07'0 0.0
2018-Apr-15 06:28N 34°23' W 120°07'0 0.0
2018-Apr-15 04:46N 34°23' W 120°07'0 0.0
2018-Apr-15 04:25N 34°23' W 120°07'0 0.0
2018-Apr-15 03:53N 34°23' W 120°07'0 0.0
2018-Apr-15 03:23N 34°23' W 120°07'0 0.0
2018-Apr-15 02:56N 34°23' W 120°07'0 0.0
2018-Apr-15 02:29N 34°23' W 120°07'0 0.0
2018-Apr-15 01:57N 34°23' W 120°07'0 0.0
2018-Apr-15 01:24N 34°23' W 120°07'0 0.0
2018-Apr-15 00:48N 34°23' W 120°07'3 5.2
2018-Apr-15 00:18N 34°23' W 120°10'0 0.0
2018-Apr-15 00:00N 34°23' W 120°10'6 9.4
2018-Apr-14 23:24N 34°21' W 120°17'0 0.0
2018-Apr-14 23:00N 34°21' W 120°17'610.2
2018-Apr-14 22:25N 34°22' W 120°10'0 0.0
2018-Apr-14 21:46N 34°22' W 120°10'0 0.1
2018-Apr-14 21:24N 34°22' W 120°10'0 0.5
2018-Apr-14 20:55N 34°23' W 120°10'1 2.9
2018-Apr-14 20:27N 34°22' W 120°12'4 8.1
2018-Apr-14 19:55N 34°21' W 120°17'0 0.0
2018-Apr-14 19:22N 34°21' W 120°17'0 0.0
2018-Apr-14 18:59N 34°21' W 120°17'0 0.1
2018-Apr-14 18:22N 34°21' W 120°17'3 6.5
2018-Apr-14 17:51N 34°22' W 120°13'511.5
2018-Apr-14 17:27N 34°23' W 120°07'0 0.4
2018-Apr-14 16:41N 34°23' W 120°07'0 0.0
2018-Apr-14 16:23N 34°23' W 120°07'0 0.0
2018-Apr-14 15:59N 34°23' W 120°07'0 0.0
2018-Apr-14 15:26N 34°23' W 120°07'5 7.7
2018-Apr-14 14:46N 34°24' W 120°01'413.8
2018-Apr-14 14:27N 34°25' W 119°56'2 3.4
2018-Apr-14 13:57N 34°23' W 119°54'614.3
2018-Apr-14 13:30N 34°20' W 119°47'31 1.9
2018-Apr-13 20:41N 34°09' W 119°12'0 0.0
2018-Apr-13 20:26N 34°09' W 119°12'510.1
2018-Apr-13 19:58N 34°09' W 119°18'715.1
2018-Apr-13 19:29N 34°12' W 119°26'1215.0
2018-Apr-13 18:42N 34°16' W 119°40'315.1
2018-Apr-13 18:30N 34°17' W 119°43'714.7
2018-Apr-13 18:00N 34°19' W 119°52'814.8
2018-Apr-13 17:28N 34°22' W 120°01'612.5
2018-Apr-13 17:00N 34°23' W 120°07'0 0.1
2018-Apr-13 16:13N 34°23' W 120°07'0 0.8
2018-Apr-13 16:00N 34°23' W 120°07'2 3.0
2018-Apr-13 15:28N 34°23' W 120°09'714.7
2018-Apr-13 15:00N 34°21' W 120°17'611.0
2018-Apr-13 14:29N 34°23' W 120°10'2 4.2
2018-Apr-13 13:53N 34°23' W 120°07'0 0.6
2018-Apr-13 13:29N 34°23' W 120°07'0 0.1
2018-Apr-13 12:59N 34°23' W 120°07'0 0.1
2018-Apr-13 12:29N 34°23' W 120°07'0 0.0
2018-Apr-13 11:54N 34°23' W 120°07'0 0.0
2018-Apr-13 11:28N 34°23' W 120°07'0 0.0
2018-Apr-13 10:58N 34°23' W 120°07'0 0.0
2018-Apr-13 10:28N 34°23' W 120°07'0 0.1
2018-Apr-13 10:00N 34°23' W 120°07'0 0.0
2018-Apr-13 09:30N 34°23' W 120°07'0 0.0
2018-Apr-13 09:00N 34°23' W 120°07'0 0.1
2018-Apr-13 08:29N 34°23' W 120°07'0 0.0
2018-Apr-13 07:57N 34°23' W 120°07'0 0.0
2018-Apr-13 07:30N 34°23' W 120°07'0 0.0
2018-Apr-13 07:00N 34°23' W 120°07'0 0.0
2018-Apr-13 06:30N 34°23' W 120°07'0 0.0
2018-Apr-13 06:00N 34°23' W 120°07'0 0.0
2018-Apr-13 05:29N 34°23' W 120°07'0 0.0
2018-Apr-13 04:59N 34°23' W 120°07'0 0.1
2018-Apr-13 04:29N 34°23' W 120°07'0 0.0
2018-Apr-13 04:00N 34°23' W 120°07'0 0.0
2018-Apr-13 03:29N 34°23' W 120°07'0 0.1
2018-Apr-13 02:58N 34°23' W 120°07'0 0.1
2018-Apr-13 02:30N 34°23' W 120°07'0 0.0
2018-Apr-13 02:00N 34°23' W 120°07'0 0.0
2018-Apr-13 01:30N 34°23' W 120°07'0 0.0
2018-Apr-13 00:59N 34°23' W 120°07'0 0.0
2018-Apr-13 00:30N 34°23' W 120°07'0 0.0
2018-Apr-13 00:00N 34°23' W 120°07'0 0.0
2018-Apr-12 23:29N 34°23' W 120°07'0 0.0
2018-Apr-12 22:59N 34°23' W 120°07'0 0.0
2018-Apr-12 22:30N 34°23' W 120°07'0 0.0
2018-Apr-12 22:00N 34°23' W 120°07'0 0.0
2018-Apr-12 21:30N 34°23' W 120°07'0 0.0
2018-Apr-12 21:00N 34°23' W 120°07'0 0.0
2018-Apr-12 20:30N 34°23' W 120°07'0 0.1
2018-Apr-12 20:00N 34°23' W 120°07'0 0.0
2018-Apr-12 19:27N 34°23' W 120°07'0 0.0
2018-Apr-12 18:58N 34°23' W 120°07'0 0.0
2018-Apr-12 18:28N 34°23' W 120°07'0 0.0
2018-Apr-12 18:00N 34°23' W 120°07'0 0.0
2018-Apr-12 17:26N 34°23' W 120°07'0 0.0
2018-Apr-12 17:00N 34°23' W 120°07'0 0.0
2018-Apr-12 16:28N 34°23' W 120°07'0 0.0
2018-Apr-12 15:56N 34°23' W 120°07'3 7.1
2018-Apr-12 15:29N 34°24' W 120°03'712.0
2018-Apr-12 14:55N 34°26' W 119°55'0 0.0
2018-Apr-12 08:18N 34°26' W 119°55'0 0.0
2018-Apr-12 05:08N 34°26' W 119°55'0 0.0
2018-Apr-12 02:50N 34°26' W 119°55'0 0.0
2018-Apr-12 00:47N 34°26' W 119°55'2 4.6
2018-Apr-12 00:25N 34°24' W 119°56'716.0
2018-Apr-12 00:00N 34°24' W 120°04'3 5.3
2018-Apr-11 23:30N 34°23' W 120°07'5 8.6
2018-Apr-11 22:58N 34°22' W 120°12'0 0.7
2018-Apr-11 22:26N 34°22' W 120°13'3 6.1
2018-Apr-11 22:00N 34°22' W 120°10'0 0.0
2018-Apr-11 21:30N 34°22' W 120°10'0 0.1
2018-Apr-11 20:44N 34°22' W 120°10'0 0.0
2018-Apr-11 20:30N 34°22' W 120°10'0 0.0
2018-Apr-11 19:56N 34°22' W 120°10'0 0.0
2018-Apr-11 19:28N 34°22' W 120°10'0 0.0
2018-Apr-11 19:00N 34°22' W 120°10'0 0.0
2018-Apr-11 18:27N 34°22' W 120°10'0 0.0
2018-Apr-11 18:00N 34°22' W 120°10'0 0.0
2018-Apr-11 17:29N 34°22' W 120°10'0 0.0
2018-Apr-11 17:00N 34°22' W 120°10'0 0.0
2018-Apr-11 16:27N 34°22' W 120°10'0 0.0
2018-Apr-11 15:57N 34°22' W 120°10'2 4.6
2018-Apr-11 15:30N 34°23' W 120°08'711.4
2018-Apr-11 14:50N 34°24' W 119°58'3 1.9
2018-Apr-11 13:12N 34°26' W 119°55'0 0.0
2018-Apr-11 12:42N 34°26' W 119°55'0 0.0
2018-Apr-11 12:24N 34°26' W 119°55'0 0.0
2018-Apr-11 09:57N 34°26' W 119°55'0 0.0
2018-Apr-11 07:34N 34°26' W 119°55'0 0.0
2018-Apr-11 07:28N 34°26' W 119°55'0 0.0
2018-Apr-11 05:46N 34°26' W 119°55'0 0.0
2018-Apr-11 02:19N 34°26' W 119°55'0 0.1
2018-Apr-11 01:50N 34°26' W 119°55'0 0.6
2018-Apr-11 01:29N 34°26' W 119°55'712.7
2018-Apr-11 00:55N 34°24' W 120°04'3 5.3
2018-Apr-11 00:22N 34°23' W 120°07'0 0.0
2018-Apr-10 23:53N 34°23' W 120°07'2 6.0
2018-Apr-10 23:29N 34°23' W 120°10'0 0.4
2018-Apr-10 23:00N 34°22' W 120°10'0 0.0
2018-Apr-10 22:30N 34°23' W 120°10'2 3.8
2018-Apr-10 21:53N 34°23' W 120°07'511.9
2018-Apr-10 21:27N 34°22' W 120°13'0 0.7
2018-Apr-10 20:59N 34°22' W 120°13'4 7.2
2018-Apr-10 20:30N 34°23' W 120°09'1 1.9
2018-Apr-10 19:57N 34°22' W 120°10'0 0.0
2018-Apr-10 19:27N 34°22' W 120°10'0 0.0
2018-Apr-10 19:00N 34°22' W 120°10'0 0.0
2018-Apr-10 18:24N 34°22' W 120°10'0 0.0
2018-Apr-10 17:50N 34°22' W 120°10'0 0.0
2018-Apr-10 17:26N 34°22' W 120°10'0 0.0
2018-Apr-10 16:32N 34°22' W 120°10'0 0.0
2018-Apr-10 16:17N 34°22' W 120°10'2 7.7
2018-Apr-10 15:58N 34°23' W 120°07'0 0.0
2018-Apr-10 15:26N 34°23' W 120°07'715.2
2018-Apr-10 14:59N 34°24' W 119°59'4 5.4
2018-Apr-10 14:19N 34°26' W 119°55'0 0.6
2018-Apr-10 13:57N 34°26' W 119°55'0 0.0
2018-Apr-10 13:21N 34°26' W 119°55'0 0.0
2018-Apr-10 13:00N 34°26' W 119°55'0 0.0
2018-Apr-10 12:30N 34°26' W 119°55'0 0.0
2018-Apr-10 12:00N 34°26' W 119°55'0 0.0
2018-Apr-10 11:09N 34°26' W 119°55'0 0.0
2018-Apr-10 10:51N 34°26' W 119°55'0 0.0
2018-Apr-10 10:30N 34°26' W 119°55'0 0.0
2018-Apr-10 09:48N 34°26' W 119°55'0 0.0
2018-Apr-10 08:24N 34°26' W 119°55'0 0.0
2018-Apr-10 02:36N 34°26' W 119°55'0 0.0
2018-Apr-10 02:21N 34°26' W 119°55'0 0.0
2018-Apr-10 01:56N 34°26' W 119°55'0 0.0
2018-Apr-10 00:57N 34°26' W 119°55'4 8.3
2018-Apr-10 00:30N 34°24' W 119°59'710.6
2018-Apr-09 23:52N 34°23' W 120°07'3 7.0
2018-Apr-09 23:30N 34°23' W 120°10'3 4.9
2018-Apr-09 22:59N 34°23' W 120°07'3 5.2
2018-Apr-09 22:30N 34°23' W 120°10'510.2
2018-Apr-09 22:00N 34°21' W 120°16'1 1.6
2018-Apr-09 21:30N 34°21' W 120°15'815.3
2018-Apr-09 20:59N 34°22' W 120°06'815.3
2018-Apr-09 20:29N 34°20' W 119°57'1015.2
2018-Apr-09 19:51N 34°16' W 119°46'  
Track history (hours):
 
Tides and Currents Weather Stations Pressure Air Temp Water Temp Dewpoint Dewpoint Depression Visibility Wind Speed Wind Dir Waves Ship Positions

Lovely Linda

Owner: LUGO, PETER A, CAPE CORAL, FL. More information available from US FCC via Universal Licensing System and Coast Guard Vessel Documentation Center.

Last reported at 2018-Apr-19 19:30 UTC. Time now 2018-Apr-19 19:35 UTC.
Position N 34°23' W 120°07'.

Length 32 m.

Type: Passenger vessel. MMSI: 367077090.

Date/timePositionNaut miles runAvg speedWind from/ knotsBaromVisibWave heightAir tempDewpointWater temp
2018-Apr-19 19:30N 34°23' W 120°07'0 0.0
2018-Apr-19 19:00N 34°23' W 120°07'0 0.0
2018-Apr-19 18:30N 34°23' W 120°07'0 0.1
2018-Apr-19 18:00N 34°23' W 120°07'4 6.8
2018-Apr-19 17:29N 34°23' W 120°11'5 7.0
2018-Apr-19 16:48N 34°21' W 120°17'0 0.0
2018-Apr-19 16:26N 34°21' W 120°17'4 8.5
2018-Apr-19 16:00N 34°21' W 120°12'15 3.1
2018-Apr-19 11:18N 34°26' W 119°55'0 0.0
2018-Apr-19 07:08N 34°26' W 119°55'0 0.0
2018-Apr-19 05:14N 34°26' W 119°55'0 0.0
2018-Apr-19 03:14N 34°26' W 119°55'0 0.0
2018-Apr-19 00:58N 34°26' W 119°55'5 9.0
2018-Apr-19 00:28N 34°24' W 120°00'612.4
2018-Apr-18 23:59N 34°23' W 120°07'3 5.5
2018-Apr-18 23:26N 34°23' W 120°11'510.9
2018-Apr-18 22:58N 34°21' W 120°17'611.0
2018-Apr-18 22:26N 34°22' W 120°10'0 0.0
2018-Apr-18 21:58N 34°22' W 120°10'0 0.0
2018-Apr-18 21:04N 34°22' W 120°10'0 0.1
2018-Apr-18 21:00N 34°22' W 120°10'0 0.0
2018-Apr-18 20:15N 34°22' W 120°10'0 0.0
2018-Apr-18 19:57N 34°22' W 120°10'0 0.0
2018-Apr-18 19:30N 34°22' W 120°10'611.2
2018-Apr-18 18:59N 34°21' W 120°16'6 3.8
2018-Apr-18 17:30N 34°22' W 120°10'0 0.5
2018-Apr-18 17:00N 34°23' W 120°10'3 5.0
2018-Apr-18 16:29N 34°23' W 120°07'0 0.0
2018-Apr-18 15:59N 34°23' W 120°07'0 0.0
2018-Apr-18 15:25N 34°23' W 120°07'1 1.1
2018-Apr-18 14:59N 34°23' W 120°06'816.8
2018-Apr-18 14:29N 34°24' W 119°56'2 3.3
2018-Apr-18 14:00N 34°26' W 119°55'6 9.2
2018-Apr-18 13:18N 34°24' W 120°03'411.8
2018-Apr-18 13:00N 34°23' W 120°07'0 0.0
2018-Apr-18 12:30N 34°23' W 120°07'0 0.0
2018-Apr-18 12:00N 34°23' W 120°07'0 0.0
2018-Apr-18 11:24N 34°23' W 120°07'0 0.0
2018-Apr-18 10:52N 34°23' W 120°07'0 0.1
2018-Apr-18 10:21N 34°23' W 120°07'0 0.1
2018-Apr-18 10:00N 34°23' W 120°07'0 0.0
2018-Apr-18 09:00N 34°23' W 120°07'0 0.0
2018-Apr-18 07:22N 34°23' W 120°07'0 0.0
2018-Apr-18 06:58N 34°23' W 120°07'0 0.0
2018-Apr-18 06:25N 34°23' W 120°07'0 0.0
2018-Apr-18 05:58N 34°23' W 120°07'0 0.0
2018-Apr-18 05:27N 34°23' W 120°07'0 0.0
2018-Apr-18 04:57N 34°23' W 120°07'0 0.0
2018-Apr-18 04:23N 34°23' W 120°07'0 0.0
2018-Apr-18 04:00N 34°23' W 120°07'0 0.0
2018-Apr-18 03:29N 34°23' W 120°07'0 0.1
2018-Apr-18 02:58N 34°23' W 120°07'0 0.0
2018-Apr-18 02:29N 34°23' W 120°07'0 0.0
2018-Apr-18 01:57N 34°23' W 120°07'0 0.0
2018-Apr-18 01:28N 34°23' W 120°07'0 0.0
2018-Apr-18 01:00N 34°23' W 120°07'0 0.0
2018-Apr-18 00:28N 34°23' W 120°07'0 0.0
2018-Apr-17 23:42N 34°23' W 120°07'0 0.2
2018-Apr-17 23:26N 34°23' W 120°07'0 0.0
2018-Apr-17 22:59N 34°23' W 120°07'0 0.7
2018-Apr-17 22:30N 34°23' W 120°07'812.8
2018-Apr-17 21:53N 34°24' W 119°58'2 4.0
2018-Apr-17 21:21N 34°25' W 119°56'515.7
2018-Apr-17 21:00N 34°24' W 120°02'4 8.8
2018-Apr-17 20:29N 34°23' W 120°07'815.8
2018-Apr-17 19:59N 34°21' W 120°17'0 0.4
2018-Apr-17 19:30N 34°21' W 120°17'0 0.4
2018-Apr-17 19:00N 34°21' W 120°17'0 0.0
2018-Apr-17 18:27N 34°21' W 120°17'612.0
2018-Apr-17 17:58N 34°23' W 120°10'0 0.1
2018-Apr-17 17:29N 34°23' W 120°10'2 3.5
2018-Apr-17 17:00N 34°23' W 120°08'1 1.8
2018-Apr-17 16:30N 34°24' W 120°07'0 0.3
2018-Apr-17 16:00N 34°23' W 120°07'0 0.0
2018-Apr-17 15:23N 34°23' W 120°07'3 7.9
2018-Apr-17 14:57N 34°23' W 120°03'710.6
2018-Apr-17 14:19N 34°26' W 119°55'5 9.2
2018-Apr-17 13:46N 34°22' W 119°51'414.0
2018-Apr-17 13:27N 34°20' W 119°47'714.1
2018-Apr-17 12:59N 34°17' W 119°40'813.8
2018-Apr-17 12:23N 34°13' W 119°30'1013.3
2018-Apr-17 11:38N 34°10' W 119°19'213.0
2018-Apr-17 11:30N 34°10' W 119°17'4 0.2
2018-Apr-16 08:27N 34°09' W 119°12'0 0.0
2018-Apr-16 05:45N 34°09' W 119°12'0 0.0
2018-Apr-16 05:27N 34°09' W 119°12'0 0.0
2018-Apr-16 03:51N 34°09' W 119°12'0 0.0
2018-Apr-16 01:19N 34°09' W 119°12'0 0.0
2018-Apr-16 00:36N 34°09' W 119°12'0 0.0
2018-Apr-16 00:30N 34°09' W 119°12'0 0.0
2018-Apr-15 22:39N 34°09' W 119°12'0 0.0
2018-Apr-15 22:15N 34°09' W 119°12'0 0.0
2018-Apr-15 22:00N 34°09' W 119°12'0 0.0
2018-Apr-15 21:22N 34°09' W 119°12'2 4.8
2018-Apr-15 20:57N 34°09' W 119°15'716.0
2018-Apr-15 20:30N 34°11' W 119°23'916.0
2018-Apr-15 19:57N 34°14' W 119°33'815.6
2018-Apr-15 19:26N 34°17' W 119°42'715.3
2018-Apr-15 18:57N 34°19' W 119°50'915.2
2018-Apr-15 18:20N 34°23' W 120°01'515.1
2018-Apr-15 18:00N 34°23' W 120°07'3 5.6
2018-Apr-15 17:30N 34°23' W 120°10'0 0.2
2018-Apr-15 16:59N 34°23' W 120°10'611.4
2018-Apr-15 16:30N 34°21' W 120°17'611.0
2018-Apr-15 15:59N 34°23' W 120°10'1 1.9
2018-Apr-15 15:26N 34°22' W 120°11'4 9.6
2018-Apr-15 15:00N 34°21' W 120°16'3 5.1
2018-Apr-15 14:30N 34°22' W 120°13'5 9.3
2018-Apr-15 13:59N 34°23' W 120°08'1 0.9
2018-Apr-15 13:24N 34°23' W 120°07'0 0.0
2018-Apr-15 13:00N 34°23' W 120°07'0 0.0
2018-Apr-15 12:27N 34°23' W 120°07'0 0.1
2018-Apr-15 12:00N 34°23' W 120°07'0 0.0
2018-Apr-15 11:18N 34°23' W 120°07'0 0.0
2018-Apr-15 10:58N 34°23' W 120°07'0 0.0
2018-Apr-15 10:28N 34°23' W 120°07'0 0.0
2018-Apr-15 09:55N 34°23' W 120°07'0 0.0
2018-Apr-15 09:25N 34°23' W 120°07'0 0.0
2018-Apr-15 08:46N 34°23' W 120°07'0 0.0
2018-Apr-15 08:19N 34°23' W 120°07'0 0.0
2018-Apr-15 07:49N 34°23' W 120°07'0 0.1
2018-Apr-15 07:13N 34°23' W 120°07'0 0.0
2018-Apr-15 06:58N 34°23' W 120°07'0 0.0
2018-Apr-15 06:28N 34°23' W 120°07'0 0.0
2018-Apr-15 04:46N 34°23' W 120°07'0 0.0
2018-Apr-15 04:25N 34°23' W 120°07'0 0.0
2018-Apr-15 03:53N 34°23' W 120°07'0 0.0
2018-Apr-15 03:23N 34°23' W 120°07'0 0.0
2018-Apr-15 02:56N 34°23' W 120°07'0 0.0
2018-Apr-15 02:29N 34°23' W 120°07'0 0.0
2018-Apr-15 01:57N 34°23' W 120°07'0 0.0
2018-Apr-15 01:24N 34°23' W 120°07'0 0.0
2018-Apr-15 00:48N 34°23' W 120°07'3 5.2
2018-Apr-15 00:18N 34°23' W 120°10'0 0.0
2018-Apr-15 00:00N 34°23' W 120°10'6 9.4
2018-Apr-14 23:24N 34°21' W 120°17'0 0.0
2018-Apr-14 23:00N 34°21' W 120°17'610.2
2018-Apr-14 22:25N 34°22' W 120°10'0 0.0
2018-Apr-14 21:46N 34°22' W 120°10'0 0.1
2018-Apr-14 21:24N 34°22' W 120°10'0 0.5
2018-Apr-14 20:55N 34°23' W 120°10'1 2.9
2018-Apr-14 20:27N 34°22' W 120°12'4 8.1
2018-Apr-14 19:55N 34°21' W 120°17'0 0.0
2018-Apr-14 19:22N 34°21' W 120°17'0 0.0
2018-Apr-14 18:59N 34°21' W 120°17'0 0.1
2018-Apr-14 18:22N 34°21' W 120°17'3 6.5
2018-Apr-14 17:51N 34°22' W 120°13'511.5
2018-Apr-14 17:27N 34°23' W 120°07'0 0.4
2018-Apr-14 16:41N 34°23' W 120°07'0 0.0
2018-Apr-14 16:23N 34°23' W 120°07'0 0.0
2018-Apr-14 15:59N 34°23' W 120°07'0 0.0
2018-Apr-14 15:26N 34°23' W 120°07'5 7.7
2018-Apr-14 14:46N 34°24' W 120°01'413.8
2018-Apr-14 14:27N 34°25' W 119°56'2 3.4
2018-Apr-14 13:57N 34°23' W 119°54'614.3
2018-Apr-14 13:30N 34°20' W 119°47'31 1.9
2018-Apr-13 20:41N 34°09' W 119°12'0 0.0
2018-Apr-13 20:26N 34°09' W 119°12'510.1
2018-Apr-13 19:58N 34°09' W 119°18'715.1
2018-Apr-13 19:29N 34°12' W 119°26'1215.0
2018-Apr-13 18:42N 34°16' W 119°40'315.1
2018-Apr-13 18:30N 34°17' W 119°43'714.7
2018-Apr-13 18:00N 34°19' W 119°52'814.8
2018-Apr-13 17:28N 34°22' W 120°01'612.5
2018-Apr-13 17:00N 34°23' W 120°07'0 0.1
2018-Apr-13 16:13N 34°23' W 120°07'0 0.8
2018-Apr-13 16:00N 34°23' W 120°07'2 3.0
2018-Apr-13 15:28N 34°23' W 120°09'714.7
2018-Apr-13 15:00N 34°21' W 120°17'611.0
2018-Apr-13 14:29N 34°23' W 120°10'2 4.2
2018-Apr-13 13:53N 34°23' W 120°07'0 0.6
2018-Apr-13 13:29N 34°23' W 120°07'0 0.1
2018-Apr-13 12:59N 34°23' W 120°07'0 0.1
2018-Apr-13 12:29N 34°23' W 120°07'0 0.0
2018-Apr-13 11:54N 34°23' W 120°07'0 0.0
2018-Apr-13 11:28N 34°23' W 120°07'0 0.0
2018-Apr-13 10:58N 34°23' W 120°07'0 0.0
2018-Apr-13 10:28N 34°23' W 120°07'0 0.1
2018-Apr-13 10:00N 34°23' W 120°07'0 0.0
2018-Apr-13 09:30N 34°23' W 120°07'0 0.0
2018-Apr-13 09:00N 34°23' W 120°07'0 0.1
2018-Apr-13 08:29N 34°23' W 120°07'0 0.0
2018-Apr-13 07:57N 34°23' W 120°07'0 0.0
2018-Apr-13 07:30N 34°23' W 120°07'0 0.0
2018-Apr-13 07:00N 34°23' W 120°07'0 0.0
2018-Apr-13 06:30N 34°23' W 120°07'0 0.0
2018-Apr-13 06:00N 34°23' W 120°07'0 0.0
2018-Apr-13 05:29N 34°23' W 120°07'0 0.0
2018-Apr-13 04:59N 34°23' W 120°07'0 0.1
2018-Apr-13 04:29N 34°23' W 120°07'0 0.0
2018-Apr-13 04:00N 34°23' W 120°07'0 0.0
2018-Apr-13 03:29N 34°23' W 120°07'0 0.1
2018-Apr-13 02:58N 34°23' W 120°07'0 0.1
2018-Apr-13 02:30N 34°23' W 120°07'0 0.0
2018-Apr-13 02:00N 34°23' W 120°07'0 0.0
2018-Apr-13 01:30N 34°23' W 120°07'0 0.0
2018-Apr-13 00:59N 34°23' W 120°07'0 0.0
2018-Apr-13 00:30N 34°23' W 120°07'0 0.0
2018-Apr-13 00:00N 34°23' W 120°07'0 0.0
2018-Apr-12 23:29N 34°23' W 120°07'0 0.0
2018-Apr-12 22:59N 34°23' W 120°07'0 0.0
2018-Apr-12 22:30N 34°23' W 120°07'0 0.0
2018-Apr-12 22:00N 34°23' W 120°07'0 0.0
2018-Apr-12 21:30N 34°23' W 120°07'0 0.0
2018-Apr-12 21:00N 34°23' W 120°07'0 0.0
2018-Apr-12 20:30N 34°23' W 120°07'0 0.1
2018-Apr-12 20:00N 34°23' W 120°07'0 0.0
2018-Apr-12 19:27N 34°23' W 120°07'0 0.0
2018-Apr-12 18:58N 34°23' W 120°07'0 0.0
2018-Apr-12 18:28N 34°23' W 120°07'0 0.0
2018-Apr-12 18:00N 34°23' W 120°07'0 0.0
2018-Apr-12 17:26N 34°23' W 120°07'0 0.0
2018-Apr-12 17:00N 34°23' W 120°07'0 0.0
2018-Apr-12 16:28N 34°23' W 120°07'0 0.0
2018-Apr-12 15:56N 34°23' W 120°07'3 7.1
2018-Apr-12 15:29N 34°24' W 120°03'712.0
2018-Apr-12 14:55N 34°26' W 119°55'0 0.0
2018-Apr-12 08:18N 34°26' W 119°55'0 0.0
2018-Apr-12 05:08N 34°26' W 119°55'0 0.0
2018-Apr-12 02:50N 34°26' W 119°55'0 0.0
2018-Apr-12 00:47N 34°26' W 119°55'2 4.6
2018-Apr-12 00:25N 34°24' W 119°56'716.0
2018-Apr-12 00:00N 34°24' W 120°04'3 5.3
2018-Apr-11 23:30N 34°23' W 120°07'5 8.6
2018-Apr-11 22:58N 34°22' W 120°12'0 0.7
2018-Apr-11 22:26N 34°22' W 120°13'3 6.1
2018-Apr-11 22:00N 34°22' W 120°10'0 0.0
2018-Apr-11 21:30N 34°22' W 120°10'0 0.1
2018-Apr-11 20:44N 34°22' W 120°10'0 0.0
2018-Apr-11 20:30N 34°22' W 120°10'0 0.0
2018-Apr-11 19:56N 34°22' W 120°10'0 0.0
2018-Apr-11 19:28N 34°22' W 120°10'0 0.0
2018-Apr-11 19:00N 34°22' W 120°10'0 0.0
2018-Apr-11 18:27N 34°22' W 120°10'0 0.0
2018-Apr-11 18:00N 34°22' W 120°10'0 0.0
2018-Apr-11 17:29N 34°22' W 120°10'0 0.0
2018-Apr-11 17:00N 34°22' W 120°10'0 0.0
2018-Apr-11 16:27N 34°22' W 120°10'0 0.0
2018-Apr-11 15:57N 34°22' W 120°10'2 4.6
2018-Apr-11 15:30N 34°23' W 120°08'711.4
2018-Apr-11 14:50N 34°24' W 119°58'3 1.9
2018-Apr-11 13:12N 34°26' W 119°55'0 0.0
2018-Apr-11 12:42N 34°26' W 119°55'0 0.0
2018-Apr-11 12:24N 34°26' W 119°55'0 0.0
2018-Apr-11 09:57N 34°26' W 119°55'0 0.0
2018-Apr-11 07:34N 34°26' W 119°55'0 0.0
2018-Apr-11 07:28N 34°26' W 119°55'0 0.0
2018-Apr-11 05:46N 34°26' W 119°55'0 0.0
2018-Apr-11 02:19N 34°26' W 119°55'0 0.1
2018-Apr-11 01:50N 34°26' W 119°55'0 0.6
2018-Apr-11 01:29N 34°26' W 119°55'712.7
2018-Apr-11 00:55N 34°24' W 120°04'3 5.3
2018-Apr-11 00:22N 34°23' W 120°07'0 0.0
2018-Apr-10 23:53N 34°23' W 120°07'2 6.0
2018-Apr-10 23:29N 34°23' W 120°10'0 0.4
2018-Apr-10 23:00N 34°22' W 120°10'0 0.0
2018-Apr-10 22:30N 34°23' W 120°10'2 3.8
2018-Apr-10 21:53N 34°23' W 120°07'511.9
2018-Apr-10 21:27N 34°22' W 120°13'0 0.7
2018-Apr-10 20:59N 34°22' W 120°13'4 7.2
2018-Apr-10 20:30N 34°23' W 120°09'1 1.9
2018-Apr-10 19:57N 34°22' W 120°10'0 0.0
2018-Apr-10 19:27N 34°22' W 120°10'0 0.0
2018-Apr-10 19:00N 34°22' W 120°10'0 0.0
2018-Apr-10 18:24N 34°22' W 120°10'0 0.0
2018-Apr-10 17:50N 34°22' W 120°10'0 0.0
2018-Apr-10 17:26N 34°22' W 120°10'0 0.0
2018-Apr-10 16:32N 34°22' W 120°10'0 0.0
2018-Apr-10 16:17N 34°22' W 120°10'2 7.7
2018-Apr-10 15:58N 34°23' W 120°07'0 0.0
2018-Apr-10 15:26N 34°23' W 120°07'715.2
2018-Apr-10 14:59N 34°24' W 119°59'4 5.4
2018-Apr-10 14:19N 34°26' W 119°55'0 0.6
2018-Apr-10 13:57N 34°26' W 119°55'0 0.0
2018-Apr-10 13:21N 34°26' W 119°55'0 0.0
2018-Apr-10 13:00N 34°26' W 119°55'0 0.0
2018-Apr-10 12:30N 34°26' W 119°55'0 0.0
2018-Apr-10 12:00N 34°26' W 119°55'0 0.0
2018-Apr-10 11:09N 34°26' W 119°55'0 0.0
2018-Apr-10 10:51N 34°26' W 119°55'0 0.0
2018-Apr-10 10:30N 34°26' W 119°55'0 0.0
2018-Apr-10 09:48N 34°26' W 119°55'0 0.0
2018-Apr-10 08:24N 34°26' W 119°55'0 0.0
2018-Apr-10 02:36N 34°26' W 119°55'0 0.0
2018-Apr-10 02:21N 34°26' W 119°55'0 0.0
2018-Apr-10 01:56N 34°26' W 119°55'0 0.0
2018-Apr-10 00:57N 34°26' W 119°55'4 8.3
2018-Apr-10 00:30N 34°24' W 119°59'710.6
2018-Apr-09 23:52N 34°23' W 120°07'3 7.0
2018-Apr-09 23:30N 34°23' W 120°10'3 4.9
2018-Apr-09 22:59N 34°23' W 120°07'3 5.2
2018-Apr-09 22:30N 34°23' W 120°10'510.2
2018-Apr-09 22:00N 34°21' W 120°16'1 1.6
2018-Apr-09 21:30N 34°21' W 120°15'815.3
2018-Apr-09 20:59N 34°22' W 120°06'815.3
2018-Apr-09 20:29N 34°20' W 119°57'1015.2
2018-Apr-09 19:51N 34°16' W 119°46'  

Dump ship's entire track history